Time;durP1;ratioP1;P1;durP2;ratioP2;P2;SDS_P1;SDS_P2;PMS_P1;PMS_P2;Temp;Humidity;BMP_temperature;BMP_pressure;BME280_temperature;BME280_humidity;BME280_pressure;Samples;Min_cycle;Max_cycle;Signal;HPM_P1;HPM_P2
2021/04/08 00:15:05;;;;;;;1999.90;999.90;;;3.10;99.90;;;;;;4794826;29;20217;-87
2021/04/08 00:25:28;;;;;;;;;;;;;;;;;;;;;
2021/04/08 00:28:25;;;;;;;1999.90;999.90;;;3.10;99.90;;;;;;4884552;23;20250;-87
2021/04/08 00:31:27;;;;;;;1999.90;999.90;;;3.10;99.90;;;;;;4805076;29;20181;-88
2021/04/08 00:33:53;;;;;;;1999.90;999.90;;;3.20;99.90;;;;;;4745356;30;20300;-88
2021/04/08 00:36:58;;;;;;;1999.90;999.90;;;3.20;99.90;;;;;;4767974;30;20774;-88
2021/04/08 00:39:41;;;;;;;1999.90;999.90;;;3.20;99.90;;;;;;4768140;30;20416;-88
2021/04/08 00:42:21;;;;;;;1999.90;999.90;;;3.20;99.90;;;;;;4753414;30;20171;-88
2021/04/08 00:44:58;;;;;;;1999.90;999.90;;;3.20;99.90;;;;;;4778246;29;20193;-88
2021/04/08 00:47:56;;;;;;;1999.90;999.90;;;3.20;99.90;;;;;;4789929;29;20193;-87
2021/04/08 00:53:41;;;;;;;1999.90;999.90;;;3.10;99.90;;;;;;4750825;30;20251;-87
2021/04/08 01:03:39;;;;;;;;;;;;;;;;;;;;;
2021/04/08 01:06:35;;;;;;;1999.90;999.90;;;3.00;99.90;;;;;;4802739;29;20205;-87
2021/04/08 01:09:43;;;;;;;;;;;;;;;;;;;;;
2021/04/08 01:12:51;;;;;;;;;;;;;;;;;;;;;
2021/04/08 01:15:39;;;;;;;1999.90;999.90;;;3.10;99.90;;;;;;4796447;29;20199;-88
2021/04/08 01:18:48;;;;;;;1999.90;999.90;;;3.10;99.90;;;;;;4805408;29;20181;-88
2021/04/08 01:28:37;;;;;;;1999.90;999.90;;;3.00;99.90;;;;;;4772216;30;20224;-88
2021/04/08 01:31:34;;;;;;;1999.90;999.90;;;3.00;99.90;;;;;;4762312;30;20179;-87
2021/04/08 01:34:26;;;;;;;1999.90;999.90;;;3.00;99.90;;;;;;4797526;29;20201;-87
2021/04/08 01:37:49;;;;;;;1999.90;999.90;;;3.00;99.90;;;;;;4756866;30;20245;-87
2021/04/08 01:47:22;;;;;;;1999.90;999.90;;;3.00;99.90;;;;;;4735375;30;20235;-87
2021/04/08 01:50:19;;;;;;;1999.90;999.90;;;3.00;99.90;;;;;;4753982;30;20286;-87
2021/04/08 01:52:55;;;;;;;1999.90;999.90;;;3.10;99.90;;;;;;4770828;30;20185;-88
2021/04/08 01:56:06;;;;;;;1999.90;999.90;;;3.10;99.90;;;;;;4770738;30;20179;-87
2021/04/08 02:00:16;;;;;;;1999.90;999.90;;;3.00;99.90;;;;;;4755677;30;20191;-88
2021/04/08 02:03:15;;;;;;;1999.90;999.90;;;3.10;99.90;;;;;;4744416;30;20175;-87
2021/04/08 02:05:29;;;;;;;1999.90;999.90;;;3.10;99.90;;;;;;4760917;30;20631;-88
2021/04/08 02:08:40;;;;;;;1999.90;999.90;;;3.00;99.90;;;;;;4755322;30;20714;-87
2021/04/08 02:12:08;;;;;;;1999.90;999.90;;;3.00;99.90;;;;;;4755561;30;20551;-87
2021/04/08 02:14:59;;;;;;;1999.90;999.90;;;3.00;99.90;;;;;;4727895;30;20313;-88
2021/04/08 02:17:59;;;;;;;1999.90;999.90;;;3.00;99.90;;;;;;4770243;30;20229;-87
2021/04/08 02:20:43;;;;;;;1999.90;999.90;;;3.00;99.90;;;;;;4776709;29;20189;-87
2021/04/08 02:23:50;;;;;;;;;;;;;;;;;;;;;
2021/04/08 02:26:49;;;;;;;;;;;;;;;;;;;;;
2021/04/08 02:29:55;;;;;;;1999.90;999.90;;;3.10;99.90;;;;;;4807275;29;20207;-88
2021/04/08 02:32:30;;;;;;;1999.90;999.90;;;3.00;99.90;;;;;;4784208;29;20181;-87
2021/04/08 02:34:59;;;;;;;1999.90;999.90;;;3.00;99.90;;;;;;4807821;29;20253;-88
2021/04/08 02:38:02;;;;;;;1999.90;999.90;;;3.00;99.90;;;;;;4790811;29;20193;-87
2021/04/08 02:41:10;;;;;;;;;;;;;;;;;;;;;
2021/04/08 02:43:42;;;;;;;1999.90;999.90;;;3.00;99.90;;;;;;4769753;30;20708;-88
2021/04/08 02:46:37;;;;;;;;;;;;;;;;;;;;;
2021/04/08 02:49:41;;;;;;;1999.90;999.90;;;3.10;99.90;;;;;;4805639;29;20203;-88
2021/04/08 02:56:02;;;;;;;1999.90;999.90;;;3.10;99.90;;;;;;4752454;30;20221;-87
2021/04/08 02:58:59;;;;;;;1999.90;999.90;;;3.10;99.90;;;;;;4751611;30;20191;-87
2021/04/08 03:05:34;;;;;;;1999.90;999.90;;;3.10;99.90;;;;;;4706202;30;20605;-87
2021/04/08 03:08:29;;;;;;;1999.90;999.90;;;3.10;99.90;;;;;;4751798;30;20245;-87
2021/04/08 03:11:23;;;;;;;;;;;;;;;;;;;;;
2021/04/08 03:14:10;;;;;;;1999.90;999.90;;;3.00;99.90;;;;;;4751693;30;20809;-88
2021/04/08 03:17:13;;;;;;;1999.90;999.90;;;3.10;99.90;;;;;;4736343;30;20199;-88
2021/04/08 03:19:49;;;;;;;1999.90;999.90;;;3.10;99.90;;;;;;4780759;29;20325;-87
2021/04/08 03:22:53;;;;;;;1999.90;999.90;;;3.10;99.90;;;;;;4780377;29;20549;-87
2021/04/08 03:26:00;;;;;;;;;;;;;;;;;;;;;
2021/04/08 03:29:13;;;;;;;1999.90;999.90;;;3.10;99.90;;;;;;4806647;29;20680;-87
2021/04/08 03:32:30;;;;;;;;;;;;;;;;;;;;;
2021/04/08 03:35:26;;;;;;;1999.90;999.90;;;3.20;99.90;;;;;;4790552;29;20231;-88
2021/04/08 03:38:43;;;;;;;1999.90;999.90;;;3.20;99.90;;;;;;4790350;29;20216;-87
2021/04/08 03:41:14;;;;;;;;;;;;;;;;;;;;;
2021/04/08 03:44:03;;;;;;;1999.90;999.90;;;3.10;99.90;;;;;;4806705;29;20161;-88
2021/04/08 03:47:13;;;;;;;1999.90;999.90;;;3.10;99.90;;;;;;4810139;24;20217;-87
2021/04/08 03:56:50;;;;;;;1999.90;999.90;;;3.20;99.90;;;;;;4779596;30;20583;-88
2021/04/08 03:59:30;;;;;;;;;;;;;;;;;;;;;
2021/04/08 04:05:39;;;;;;;1999.90;999.90;;;3.10;99.90;;;;;;4819384;29;20253;-87
2021/04/08 04:09:01;;;;;;;;;;;;;;;;;;;;;
2021/04/08 04:11:56;;;;;;;1999.90;999.90;;;3.20;99.90;;;;;;4824999;29;20179;-88
2021/04/08 04:15:15;;;;;;;;;;;;;;;;;;;;;
2021/04/08 04:18:20;;;;;;;;;;;;;;;;;;;;;
2021/04/08 04:21:17;;;;;;;1999.90;999.90;;;3.00;99.90;;;;;;4824651;29;20153;-88
2021/04/08 04:24:12;;;;;;;1999.90;999.90;;;3.00;99.90;;;;;;4808424;29;20188;-88
2021/04/08 04:27:40;;;;;;;1999.90;999.90;;;3.10;99.90;;;;;;4854715;24;20296;-87
2021/04/08 04:30:30;;;;;;;1999.90;999.90;;;3.00;99.90;;;;;;4827135;29;20163;-88
2021/04/08 04:33:19;;;;;;;1999.90;999.90;;;3.00;99.90;;;;;;4812357;29;20179;-88
2021/04/08 04:36:50;;;;;;;;;;;;;;;;;;;;;
2021/04/08 04:39:35;;;;;;;;;;;;;;;;;;;;;
2021/04/08 04:43:15;;;;;;;1999.90;999.90;;;3.00;99.90;;;;;;4825262;29;20169;-88
2021/04/08 04:51:15;;;;;;;1999.90;999.90;;;3.00;99.90;;;;;;4824266;24;20247;-88
2021/04/08 04:57:29;;;;;;;1999.90;999.90;;;3.10;99.90;;;;;;4769151;30;20272;-87
2021/04/08 05:00:36;;;;;;;1999.90;999.90;;;3.00;99.90;;;;;;4736661;30;20657;-88
2021/04/08 05:03:02;;;;;;;1999.90;999.90;;;3.00;99.90;;;;;;4809596;29;20563;-88
2021/04/08 05:06:26;;;;;;;1999.90;999.90;;;3.00;99.90;;;;;;4809759;29;20173;-88
2021/04/08 05:08:52;;;;;;;1999.90;999.90;;;3.00;99.90;;;;;;4802541;29;20414;-87
2021/04/08 05:14:34;;;;;;;1999.90;999.90;;;3.00;99.90;;;;;;4809787;29;20218;-88
2021/04/08 05:17:51;;;;;;;;;;;;;;;;;;;;;
2021/04/08 05:21:24;;;;;;;1999.90;999.90;;;3.10;99.90;;;;;;4809380;29;20173;-88
2021/04/08 05:23:50;;;;;;;1999.90;999.90;;;3.10;99.90;;;;;;4868532;24;20247;-80
2021/04/08 05:26:16;;;;;;;1999.90;999.90;;;3.10;99.90;;;;;;4826742;29;20192;-81
2021/04/08 05:28:41;;;;;;;1999.90;999.90;;;3.10;99.90;;;;;;4830176;29;20267;-80
2021/04/08 05:31:08;;;;;;;1999.90;999.90;;;3.20;99.90;;;;;;4829712;29;20256;-80
2021/04/08 05:33:34;;;;;;;1999.90;999.90;;;3.20;99.90;;;;;;4813531;29;20235;-80
2021/04/08 05:36:00;;;;;;;1999.90;999.90;;;3.20;99.90;;;;;;4830441;29;20195;-81
2021/04/08 05:38:26;;;;;;;1999.90;999.90;;;3.30;99.90;;;;;;4814510;29;20196;-80
2021/04/08 05:40:51;;;;;;;1999.90;999.90;;;3.30;99.90;;;;;;4830537;29;20511;-80
2021/04/08 05:43:17;;;;;;;1999.90;999.90;;;3.30;99.90;;;;;;4830910;29;20857;-81
2021/04/08 05:45:45;;;;;;;1999.90;999.90;;;3.30;99.90;;;;;;4814561;29;20209;-81
2021/04/08 05:48:11;;;;;;;1999.90;999.90;;;3.30;99.90;;;;;;4813751;29;20180;-81
2021/04/08 05:50:37;;;;;;;1999.90;999.90;;;3.30;99.90;;;;;;4814136;29;20577;-80
2021/04/08 05:53:03;;;;;;;1999.90;999.90;;;3.40;99.90;;;;;;4830145;29;20184;-81
2021/04/08 05:55:28;;;;;;;1999.90;999.90;;;3.50;99.90;;;;;;4830475;29;20578;-80
2021/04/08 05:57:54;;;;;;;1999.90;999.90;;;3.50;99.90;;;;;;4813728;29;20196;-80
2021/04/08 06:00:20;;;;;;;1999.90;999.90;;;3.50;99.90;;;;;;4830299;29;20199;-80
2021/04/08 06:02:46;;;;;;;1999.90;999.90;;;3.50;99.90;;;;;;4813113;29;20176;-80
2021/04/08 06:05:12;;;;;;;1999.90;999.90;;;3.50;99.90;;;;;;4812360;29;20590;-81
2021/04/08 06:07:38;;;;;;;1999.90;999.90;;;3.50;99.90;;;;;;4813306;29;20249;-80
2021/04/08 06:10:04;;;;;;;1999.90;999.90;;;3.60;99.90;;;;;;4829793;29;20168;-81
2021/04/08 06:12:30;;;;;;;1999.90;999.90;;;3.60;99.90;;;;;;4812995;29;20248;-81
2021/04/08 06:14:56;;;;;;;1999.90;999.90;;;3.60;99.90;;;;;;4829568;29;20188;-81
2021/04/08 06:17:22;;;;;;;1999.90;999.90;;;3.70;99.90;;;;;;4812747;29;20671;-81
2021/04/08 06:19:48;;;;;;;1999.90;999.90;;;3.70;99.90;;;;;;4829415;29;20176;-80
2021/04/08 06:22:14;;;;;;;1999.90;999.90;;;3.70;99.90;;;;;;4829182;29;20173;-81
2021/04/08 06:24:40;;;;;;;1999.90;999.90;;;3.70;99.90;;;;;;4829796;29;20529;-81
2021/04/08 06:27:07;;;;;;;1999.90;999.90;;;3.70;99.90;;;;;;4828993;29;20219;-80
2021/04/08 06:29:32;;;;;;;1999.90;999.90;;;3.80;99.90;;;;;;4812862;29;20249;-81
2021/04/08 06:31:58;;;;;;;1999.90;999.90;;;3.80;99.90;;;;;;4829820;29;20177;-81
2021/04/08 06:34:24;;;;;;;1999.90;999.90;;;3.90;99.90;;;;;;4813325;29;20257;-80
2021/04/08 06:36:50;;;;;;;1999.90;999.90;;;4.00;99.90;;;;;;4828907;29;20185;-80
2021/04/08 06:39:16;;;;;;;1999.90;999.90;;;3.90;99.90;;;;;;4828954;29;20176;-80
2021/04/08 06:41:41;;;;;;;1999.90;999.90;;;3.90;99.90;;;;;;4833177;29;20434;-81
2021/04/08 06:44:09;;;;;;;1999.90;999.90;;;4.00;99.90;;;;;;4815284;29;20213;-80
2021/04/08 06:46:39;;;;;;;1999.90;999.90;;;4.10;99.90;;;;;;4815184;29;20392;-81
2021/04/08 06:49:20;;;;;;;1999.90;999.90;;;4.10;99.90;;;;;;4832514;29;20210;-81
2021/04/08 06:51:52;;;;;;;1999.90;999.90;;;4.20;99.90;;;;;;4832815;29;20171;-81
2021/04/08 06:54:19;;;;;;;1999.90;999.90;;;4.10;99.90;;;;;;4831474;29;20200;-81
2021/04/08 06:56:45;;;;;;;1999.90;999.90;;;4.20;99.90;;;;;;4831461;29;20201;-80
2021/04/08 06:59:13;;;;;;;1999.90;999.90;;;4.20;99.90;;;;;;4815563;29;20173;-81
2021/04/08 07:01:41;;;;;;;1999.90;999.90;;;4.30;99.90;;;;;;4816442;29;20169;-81
2021/04/08 07:04:08;;;;;;;1999.90;999.90;;;4.30;99.90;;;;;;4817996;29;20181;-81
2021/04/08 07:06:34;;;;;;;1999.90;999.90;;;4.30;99.90;;;;;;4836026;29;20676;-81
2021/04/08 07:09:00;;;;;;;1999.90;999.90;;;4.40;99.90;;;;;;4818145;29;20202;-81
2021/04/08 07:11:29;;;;;;;1999.90;999.90;;;4.50;99.90;;;;;;4834229;29;20198;-81
2021/04/08 07:13:54;;;;;;;1999.90;999.90;;;4.60;99.90;;;;;;4832326;29;20256;-81
2021/04/08 07:16:20;;;;;;;1999.90;999.90;;;4.70;99.90;;;;;;4835529;29;20236;-81
2021/04/08 07:18:49;;;;;;;1999.90;999.90;;;4.70;99.90;;;;;;4834060;29;20172;-81
2021/04/08 07:21:15;;;;;;;1999.90;999.90;;;4.80;99.90;;;;;;4831149;29;20172;-81
2021/04/08 07:24:16;;;;;;;1999.90;999.90;;;4.90;99.90;;;;;;4817236;29;20203;-82
2021/04/08 07:26:58;;;;;;;1999.90;999.90;;;5.00;99.90;;;;;;4777341;30;20609;-81
2021/04/08 07:29:51;;;;;;;1999.90;999.90;;;5.10;99.90;;;;;;4813973;29;20207;-80
2021/04/08 07:32:34;;;;;;;1999.90;999.90;;;5.10;99.90;;;;;;4817383;29;20181;-81
2021/04/08 07:35:15;;;;;;;1999.90;999.90;;;5.10;99.90;;;;;;4834791;29;20177;-81
2021/04/08 07:37:43;;;;;;;1999.90;999.90;;;5.20;99.90;;;;;;4835050;29;20200;-81
2021/04/08 07:40:16;;;;;;;1999.90;999.90;;;5.10;99.90;;;;;;4835922;29;20181;-81
2021/04/08 07:42:43;;;;;;;1999.90;999.90;;;5.20;99.90;;;;;;4834435;29;20686;-80
2021/04/08 07:45:25;;;;;;;1999.90;999.90;;;5.10;99.90;;;;;;4835316;29;20193;-81
2021/04/08 07:47:58;;;;;;;1999.90;999.90;;;5.20;99.90;;;;;;4834895;29;20252;-80
2021/04/08 07:50:24;;;;;;;1999.90;999.90;;;5.20;99.90;;;;;;4833996;29;20230;-81
2021/04/08 07:52:50;;;;;;;1999.90;999.90;;;5.30;99.90;;;;;;4833973;29;20176;-81
2021/04/08 07:55:16;;;;;;;1999.90;999.90;;;5.30;99.90;;;;;;4833849;29;20935;-81
2021/04/08 07:57:54;;;;;;;1999.90;999.90;;;5.40;99.90;;;;;;4819649;29;20197;-82
2021/04/08 08:00:26;;;;;;;1999.90;999.90;;;5.50;99.90;;;;;;4837703;29;20413;-80
2021/04/08 08:02:53;;;;;;;1999.90;999.90;;;5.70;99.90;;;;;;4815482;29;20177;-80
2021/04/08 08:05:28;;;;;;;1999.90;999.90;;;5.70;97.60;;;;;;4816316;29;20241;-81
2021/04/08 08:08:14;;;;;;;1999.90;999.90;;;5.70;96.10;;;;;;4831364;29;20222;-80
2021/04/08 08:10:42;;;;;;;1999.90;999.90;;;5.80;98.60;;;;;;4832143;29;20164;-82
2021/04/08 08:13:27;;;;;;;1999.90;999.90;;;5.90;94.80;;;;;;4832574;29;20578;-81
2021/04/08 08:15:55;;;;;;;1999.90;999.90;;;5.90;95.80;;;;;;4831405;29;20160;-81
2021/04/08 08:18:39;;;;;;;1999.90;999.90;;;6.00;96.20;;;;;;4817162;29;20239;-81
2021/04/08 08:21:11;;;;;;;1999.90;999.90;;;6.00;92.20;;;;;;4836683;29;20184;-81
2021/04/08 08:23:45;;;;;;;1999.90;999.90;;;6.10;92.80;;;;;;4835155;29;20668;-81
2021/04/08 08:26:33;;;;;;;1999.90;999.90;;;6.10;91.10;;;;;;4813260;29;20195;-81
2021/04/08 08:29:03;;;;;;;1999.90;999.90;;;6.20;96.60;;;;;;4834244;29;20241;-82
2021/04/08 08:31:38;;;;;;;1999.90;999.90;;;6.30;92.80;;;;;;4833716;29;20185;-81
2021/04/08 08:34:08;;;;;;;1999.90;999.90;;;6.40;95.20;;;;;;4832598;29;20605;-81
2021/04/08 08:36:35;;;;;;;1999.90;999.90;;;6.40;93.30;;;;;;4831693;29;20194;-81
2021/04/08 08:39:03;;;;;;;1999.90;999.90;;;6.50;95.10;;;;;;4816245;29;20249;-81
2021/04/08 08:41:29;;;;;;;1999.90;999.90;;;6.50;92.50;;;;;;4832185;29;20169;-81
2021/04/08 08:43:59;;;;;;;1999.90;999.90;;;6.60;91.40;;;;;;4815634;29;20200;-80
2021/04/08 08:46:26;;;;;;;1999.90;999.90;;;6.80;94.20;;;;;;4815423;29;20518;-81
2021/04/08 08:48:58;;;;;;;1999.90;999.90;;;7.00;87.30;;;;;;4832240;29;20255;-80
2021/04/08 08:51:26;;;;;;;1999.90;999.90;;;7.00;88.70;;;;;;4832221;29;20515;-80
2021/04/08 08:53:53;;;;;;;1999.90;999.90;;;7.20;59.50;;;;;;4830666;29;20264;-81
2021/04/08 08:56:23;;;;;;;1999.90;999.90;;;7.20;29.30;;;;;;4814737;29;20231;-80
2021/04/08 08:58:52;;;;;;;1999.90;999.90;;;7.30;22.90;;;;;;4831253;29;20629;-80
2021/04/08 09:01:19;;;;;;;1999.90;999.90;;;7.30;23.20;;;;;;4831167;29;20510;-81
2021/04/08 09:03:45;;;;;;;1999.90;999.90;;;7.30;12.30;;;;;;4831175;29;20172;-81
2021/04/08 09:06:12;;;;;;;1999.90;999.90;;;7.30;19.30;;;;;;4814209;29;20287;-81
2021/04/08 09:08:40;;;;;;;1999.90;999.90;;;7.40;24.60;;;;;;4830045;29;20421;-81
2021/04/08 09:11:07;;;;;;;1999.90;999.90;;;7.50;17.90;;;;;;4814556;29;20169;-80
2021/04/08 09:13:33;;;;;;;1999.90;999.90;;;7.70;19.80;;;;;;4814989;29;20260;-81
2021/04/08 09:16:02;;;;;;;1999.90;999.90;;;7.60;16.20;;;;;;4814646;29;20628;-81
2021/04/08 09:18:28;;;;;;;1999.90;999.90;;;7.70;16.90;;;;;;4830903;29;20160;-81
2021/04/08 09:20:55;;;;;;;1999.90;999.90;;;7.80;15.70;;;;;;4831603;29;20168;-82
2021/04/08 09:23:22;;;;;;;1999.90;999.90;;;7.80;14.50;;;;;;4832012;29;20193;-81
2021/04/08 09:25:48;;;;;;;1999.90;999.90;;;7.90;11.10;;;;;;4831653;29;20205;-81
2021/04/08 09:28:15;;;;;;;1999.90;999.90;;;7.90;8.10;;;;;;4831230;29;20238;-81
2021/04/08 09:33:39;;;;;;;1999.90;999.90;;;8.00;11.20;;;;;;4831235;29;20192;-81
2021/04/08 09:36:27;;;;;;;1999.90;999.90;;;8.10;11.90;;;;;;4815112;29;20192;-81
2021/04/08 09:39:15;;;;;;;1999.90;999.90;;;8.00;1.10;;;;;;4831253;29;20164;-81
2021/04/08 09:41:50;;;;;;;1999.90;999.90;;;7.90;1.00;;;;;;4831497;29;20188;-81
2021/04/08 09:44:18;;;;;;;1999.90;999.90;;;7.80;1.00;;;;;;4815715;29;20171;-81
2021/04/08 09:46:55;;;;;;;1999.90;999.90;;;7.90;3.30;;;;;;4814661;29;20692;-81
2021/04/08 09:49:39;;;;;;;1999.90;999.90;;;7.90;1.50;;;;;;4831381;29;20232;-82
2021/04/08 09:52:06;;;;;;;1999.90;999.90;;;8.00;1.00;;;;;;4830319;29;20236;-80
2021/04/08 09:54:55;;;;;;;1999.90;999.90;;;8.20;1.00;;;;;;4830501;29;20196;-81
2021/04/08 09:57:34;;;;;;;1999.90;999.90;;;8.20;1.00;;;;;;4831104;29;20192;-81
2021/04/08 10:00:03;;;;;;;1999.90;999.90;;;8.00;1.00;;;;;;4814685;29;20255;-81
2021/04/08 10:02:28;;;;;;;1999.90;999.90;;;8.20;1.00;;;;;;4814895;29;20256;-81
2021/04/08 10:05:05;;;;;;;1999.90;999.90;;;8.10;1.00;;;;;;4813250;29;20758;-80
2021/04/08 10:07:45;;;;;;;1999.90;999.90;;;8.10;1.00;;;;;;4813457;29;20225;-81
2021/04/08 10:10:11;;;;;;;1999.90;999.90;;;8.20;1.00;;;;;;4830089;29;20197;-81
2021/04/08 10:12:37;;;;;;;1999.90;999.90;;;8.40;1.00;;;;;;4829903;29;20229;-81
2021/04/08 10:15:03;;;;;;;1999.90;999.90;;;8.70;1.00;;;;;;4830365;29;20733;-81
2021/04/08 10:17:39;;;;;;;1999.90;999.90;;;9.00;1.00;;;;;;4829700;29;20193;-81
2021/04/08 10:20:07;;;;;;;1999.90;999.90;;;9.00;1.00;;;;;;4830035;29;20180;-80
2021/04/08 10:22:44;;;;;;;1999.90;999.90;;;8.90;1.00;;;;;;4830634;29;20180;-81
2021/04/08 10:25:13;;;;;;;1999.90;999.90;;;8.80;1.00;;;;;;4812823;29;20188;-81
2021/04/08 10:27:40;;;;;;;1999.90;999.90;;;8.90;1.00;;;;;;4827899;29;20239;-81
2021/04/08 10:30:17;;;;;;;1999.90;999.90;;;8.70;1.00;;;;;;4828488;29;20173;-80
2021/04/08 10:32:44;;;;;;;1999.90;999.90;;;8.90;1.00;;;;;;4812539;29;20184;-81
2021/04/08 10:35:28;;;;;;;1999.90;999.90;;;9.00;1.00;;;;;;4828492;29;20192;-81
2021/04/08 10:37:58;;;;;;;1999.90;999.90;;;8.80;1.00;;;;;;4828437;29;20192;-80
2021/04/08 10:40:24;;;;;;;1999.90;999.90;;;8.80;1.00;;;;;;4828059;29;20173;-80
2021/04/08 10:42:50;;;;;;;1999.90;999.90;;;8.80;1.00;;;;;;4810760;29;20173;-81
2021/04/08 10:45:16;;;;;;;1999.90;999.90;;;8.80;1.00;;;;;;4828189;29;20940;-82
2021/04/08 10:47:42;;;;;;;1999.90;999.90;;;8.90;1.00;;;;;;4828974;29;20561;-81
2021/04/08 10:50:08;;;;;;;1999.90;999.90;;;9.20;1.00;;;;;;4812777;29;20290;-80
2021/04/08 10:52:36;;;;;;;1999.90;999.90;;;9.60;1.00;;;;;;4829998;29;20172;-80
2021/04/08 10:55:11;;;;;;;1999.90;999.90;;;9.60;1.00;;;;;;4828873;29;20216;-80
2021/04/08 10:57:37;;;;;;;1999.90;999.90;;;9.60;1.00;;;;;;4812935;29;20280;-81
2021/04/08 11:00:08;;;;;;;1999.90;999.90;;;9.30;1.00;;;;;;4828734;29;20165;-81
2021/04/08 11:02:41;;;;;;;1999.90;999.90;;;9.30;1.00;;;;;;4827774;29;20537;-81
2021/04/08 11:05:11;;;;;;;1999.90;999.90;;;9.20;1.00;;;;;;4812817;29;20229;-81
2021/04/08 11:07:40;;;;;;;1999.90;999.90;;;9.50;1.00;;;;;;4828489;29;20193;-80
2021/04/08 11:10:10;;;;;;;1999.90;999.90;;;9.80;1.00;;;;;;4826859;29;20179;-80
2021/04/08 11:12:36;;;;;;;1999.90;999.90;;;10.00;1.00;;;;;;4827669;29;20721;-81
2021/04/08 11:15:04;;;;;;;1999.90;999.90;;;10.20;1.00;;;;;;4827844;29;20204;-80
2021/04/08 11:17:32;;;;;;;1999.90;999.90;;;10.10;1.00;;;;;;4827597;29;20210;-80
2021/04/08 11:19:58;;;;;;;1999.90;999.90;;;10.30;1.00;;;;;;4827750;29;20169;-81
2021/04/08 11:22:29;;;;;;;1999.90;999.90;;;10.80;1.00;;;;;;4862693;24;20695;-81
2021/04/08 11:24:56;;;;;;;1999.90;999.90;;;11.10;1.00;;;;;;4807745;29;20189;-81
2021/04/08 11:27:30;;;;;;;1999.90;999.90;;;11.20;1.00;;;;;;4807513;29;20181;-81
2021/04/08 11:29:57;;;;;;;1999.90;999.90;;;11.30;1.00;;;;;;4807525;29;20176;-81
2021/04/08 11:32:23;;;;;;;1999.90;999.90;;;11.20;1.00;;;;;;4807299;29;20166;-81
2021/04/08 11:34:57;;;;;;;1999.90;999.90;;;11.20;1.00;;;;;;4807359;29;20204;-81
2021/04/08 11:37:37;;;;;;;1999.90;999.90;;;11.30;1.00;;;;;;4791323;29;20285;-81
2021/04/08 11:40:05;;;;;;;1999.90;999.90;;;11.70;1.00;;;;;;4808104;29;20526;-82
2021/04/08 11:42:34;;;;;;;1999.90;999.90;;;11.70;1.00;;;;;;4807347;29;20252;-81
2021/04/08 11:45:21;;;;;;;1999.90;999.90;;;11.30;1.00;;;;;;4807346;29;20172;-82
2021/04/08 11:47:55;;;;;;;1999.90;999.90;;;11.70;1.00;;;;;;4791191;29;20209;-82
2021/04/08 11:50:21;;;;;;;1999.90;999.90;;;11.60;1.00;;;;;;4807542;29;20173;-81
2021/04/08 11:53:05;;;;;;;1999.90;999.90;;;12.00;1.00;;;;;;4791288;29;20200;-81
2021/04/08 11:55:38;;;;;;;1999.90;999.90;;;12.60;1.00;;;;;;4807074;29;20181;-81
2021/04/08 11:58:05;;;;;;;1999.90;999.90;;;12.90;1.00;;;;;;4791670;29;20173;-81
2021/04/08 12:00:31;;;;;;;1999.90;999.90;;;13.20;1.00;;;;;;4807243;29;20202;-81
2021/04/08 12:02:57;;;;;;;1999.90;999.90;;;13.60;1.00;;;;;;4790622;29;20298;-82
2021/04/08 12:05:23;;;;;;;1999.90;999.90;;;13.70;1.00;;;;;;4807812;29;20204;-82
2021/04/08 12:07:50;;;;;;;1999.90;999.90;;;14.00;1.00;;;;;;4791441;29;20466;-82
2021/04/08 12:10:28;;;;;;;1999.90;999.90;;;13.20;1.00;;;;;;4807333;29;20173;-82
2021/04/08 12:12:59;;;;;;;1999.90;999.90;;;12.50;1.00;;;;;;4807321;29;20261;-82
2021/04/08 12:15:40;;;;;;;1999.90;999.90;;;12.10;1.00;;;;;;4791047;29;20543;-82
2021/04/08 12:18:22;;;;;;;1999.90;999.90;;;12.10;1.00;;;;;;4790880;29;20646;-82
2021/04/08 12:20:49;;;;;;;1999.90;999.90;;;12.00;1.00;;;;;;4807835;29;20638;-82
2021/04/08 12:23:17;;;;;;;1999.90;999.90;;;12.30;1.00;;;;;;4791191;29;20560;-82
2021/04/08 12:25:51;;;;;;;1999.90;999.90;;;12.40;1.00;;;;;;4790957;29;20193;-82
2021/04/08 12:28:18;;;;;;;1999.90;999.90;;;12.80;1.00;;;;;;4807684;29;20173;-82
2021/04/08 12:30:56;;;;;;;1999.90;999.90;;;12.80;1.00;;;;;;4790717;29;20177;-83
2021/04/08 12:33:33;;;;;;;1999.90;999.90;;;12.30;1.00;;;;;;4807564;29;20145;-82
2021/04/08 12:36:01;;;;;;;1999.90;999.90;;;11.90;1.00;;;;;;4807734;29;20681;-82
2021/04/08 12:38:27;;;;;;;1999.90;999.90;;;11.50;1.00;;;;;;4790927;29;20550;-81
2021/04/08 12:40:54;;;;;;;1999.90;999.90;;;11.20;1.00;;;;;;4807399;29;20226;-81
2021/04/08 12:43:20;;;;;;;1999.90;999.90;;;11.10;1.00;;;;;;4807684;29;20226;-82
2021/04/08 12:45:47;;;;;;;1999.90;999.90;;;11.20;1.00;;;;;;4807154;29;20176;-81
2021/04/08 12:48:13;;;;;;;1999.90;999.90;;;11.40;1.00;;;;;;4791164;29;20184;-81
2021/04/08 12:50:40;;;;;;;1999.90;999.90;;;11.50;1.00;;;;;;4807065;29;20197;-82
2021/04/08 12:53:07;;;;;;;1999.90;999.90;;;11.60;1.00;;;;;;4807179;29;20230;-82
2021/04/08 12:55:33;;;;;;;1999.90;999.90;;;11.40;1.00;;;;;;4807222;29;20169;-82
2021/04/08 12:57:59;;;;;;;1999.90;999.90;;;11.30;1.00;;;;;;4807271;29;20189;-81
2021/04/08 13:00:25;;;;;;;1999.90;999.90;;;11.40;1.00;;;;;;4806929;29;20421;-81
2021/04/08 13:02:52;;;;;;;1999.90;999.90;;;11.50;1.00;;;;;;4790854;29;20422;-82
2021/04/08 13:05:18;;;;;;;1999.90;999.90;;;11.70;1.00;;;;;;4807039;29;20173;-81
2021/04/08 13:07:44;;;;;;;1999.90;999.90;;;11.90;1.00;;;;;;4790983;29;20338;-82
2021/04/08 13:10:10;;;;;;;1999.90;999.90;;;12.00;1.00;;;;;;4791126;29;20260;-82
2021/04/08 13:12:36;;;;;;;1999.90;999.90;;;12.10;1.00;;;;;;4807696;29;20194;-81
2021/04/08 13:15:03;;;;;;;1999.90;999.90;;;12.30;1.00;;;;;;4794223;29;20205;-81
2021/04/08 13:17:29;;;;;;;1999.90;999.90;;;12.50;1.00;;;;;;4810233;29;20436;-81
2021/04/08 13:19:54;;;;;;;1999.90;999.90;;;12.40;1.00;;;;;;4810102;29;20173;-81
2021/04/08 13:22:20;;;;;;;1999.90;999.90;;;12.20;1.00;;;;;;4810515;29;20222;-81
2021/04/08 13:24:46;;;;;;;1999.90;999.90;;;12.20;1.00;;;;;;4794671;29;20181;-81
2021/04/08 13:27:11;;;;;;;1999.90;999.90;;;12.60;1.00;;;;;;4810740;29;20197;-82
2021/04/08 13:29:37;;;;;;;1999.90;999.90;;;12.60;1.00;;;;;;4810656;29;20638;-81
2021/04/08 13:32:04;;;;;;;1999.90;999.90;;;12.80;1.00;;;;;;4810670;29;20174;-81
2021/04/08 13:34:30;;;;;;;1999.90;999.90;;;12.70;1.00;;;;;;4809786;29;20201;-81
2021/04/08 13:36:56;;;;;;;1999.90;999.90;;;12.90;1.00;;;;;;4793728;29;20658;-82
2021/04/08 13:39:22;;;;;;;1999.90;999.90;;;12.60;1.00;;;;;;4809960;29;20641;-82
2021/04/08 13:41:47;;;;;;;1999.90;999.90;;;12.30;1.00;;;;;;4810588;29;20173;-83
2021/04/08 13:44:14;;;;;;;1999.90;999.90;;;11.90;1.00;;;;;;4809976;29;20176;-82
2021/04/08 13:46:40;;;;;;;1999.90;999.90;;;11.40;1.00;;;;;;4793476;29;20249;-82
2021/04/08 13:49:06;;;;;;;1999.90;999.90;;;11.70;1.00;;;;;;4809771;29;20697;-82
2021/04/08 13:51:33;;;;;;;1999.90;999.90;;;11.90;1.00;;;;;;4809871;29;20181;-82
2021/04/08 13:53:59;;;;;;;1999.90;999.90;;;12.00;1.00;;;;;;4793663;29;20800;-82
2021/04/08 13:56:24;;;;;;;1999.90;999.90;;;12.30;1.00;;;;;;4793499;29;20204;-82
2021/04/08 13:58:50;;;;;;;1999.90;999.90;;;12.30;1.00;;;;;;4809706;29;20587;-82
2021/04/08 14:01:16;;;;;;;1999.90;999.90;;;12.20;1.00;;;;;;4793614;29;20426;-82
2021/04/08 14:03:41;;;;;;;1999.90;999.90;;;12.20;1.00;;;;;;4809829;29;20177;-82
2021/04/08 14:06:07;;;;;;;1999.90;999.90;;;12.40;1.00;;;;;;4809525;29;20197;-82
2021/04/08 14:08:33;;;;;;;1999.90;999.90;;;12.50;1.00;;;;;;4810374;29;20264;-82
2021/04/08 14:10:58;;;;;;;1999.90;999.90;;;12.40;1.00;;;;;;4809754;29;20197;-82
2021/04/08 14:13:24;;;;;;;1999.90;999.90;;;12.50;1.00;;;;;;4809586;29;20646;-82
2021/04/08 14:15:50;;;;;;;1999.90;999.90;;;12.70;1.00;;;;;;4810281;29;20550;-82
2021/04/08 14:18:16;;;;;;;1999.90;999.90;;;13.10;1.00;;;;;;4793353;29;20230;-82
2021/04/08 14:20:43;;;;;;;1999.90;999.90;;;13.00;1.00;;;;;;4809672;29;20256;-82
2021/04/08 14:23:08;;;;;;;1999.90;999.90;;;13.20;1.00;;;;;;4809468;29;20192;-82
2021/04/08 14:25:34;;;;;;;1999.90;999.90;;;13.10;1.00;;;;;;4809565;29;20555;-83
2021/04/08 14:28:00;;;;;;;1999.90;999.90;;;12.90;1.00;;;;;;4809406;29;20198;-83
2021/04/08 14:30:26;;;;;;;1999.90;999.90;;;12.70;1.00;;;;;;4809491;29;20173;-82
2021/04/08 14:32:52;;;;;;;1999.90;999.90;;;12.40;1.00;;;;;;4795217;29;20177;-84
2021/04/08 14:35:18;;;;;;;1999.90;999.90;;;12.50;1.00;;;;;;4811300;29;20817;-82
2021/04/08 14:37:43;;;;;;;1999.90;999.90;;;12.30;1.00;;;;;;4811611;29;20427;-81
2021/04/08 14:40:09;;;;;;;1999.90;999.90;;;12.40;1.00;;;;;;4812304;29;20422;-80